sensor_id;sensor_type;location;lat;lon;timestamp;pressure;altitude;pressure_sealevel;temperature;humidity
71043;BME280;58696;52.134;5.500;2023-04-27T00:01:23;102286.16;;;1.84;87.51
71043;BME280;58696;52.134;5.500;2023-04-27T00:03:52;102292.94;;;1.83;87.51
71043;BME280;58696;52.134;5.500;2023-04-27T00:06:24;102292.22;;;1.81;87.36
71043;BME280;58696;52.134;5.500;2023-04-27T00:08:56;102290.59;;;1.80;87.56
71043;BME280;58696;52.134;5.500;2023-04-27T00:11:23;102301.19;;;1.87;87.67
71043;BME280;58696;52.134;5.500;2023-04-27T00:13:52;102298.81;;;1.84;87.51
71043;BME280;58696;52.134;5.500;2023-04-27T00:16:21;102299.47;;;1.88;87.78
71043;BME280;58696;52.134;5.500;2023-04-27T00:18:50;102296.75;;;1.91;87.57
71043;BME280;58696;52.134;5.500;2023-04-27T00:21:17;102295.41;;;1.85;87.21
71043;BME280;58696;52.134;5.500;2023-04-27T00:23:44;102295.47;;;1.69;87.44
71043;BME280;58696;52.134;5.500;2023-04-27T00:26:11;102296.19;;;1.71;87.85
71043;BME280;58696;52.134;5.500;2023-04-27T00:28:37;102295.47;;;1.69;87.46
71043;BME280;58696;52.134;5.500;2023-04-27T00:31:04;102295.34;;;1.56;87.45
71043;BME280;58696;52.134;5.500;2023-04-27T00:33:31;102298.00;;;1.39;87.39
71043;BME280;58696;52.134;5.500;2023-04-27T00:36:03;102296.72;;;1.32;88.21
71043;BME280;58696;52.134;5.500;2023-04-27T00:38:29;102295.38;;;1.41;88.02
71043;BME280;58696;52.134;5.500;2023-04-27T00:41:04;102292.69;;;1.44;88.19
71043;BME280;58696;52.134;5.500;2023-04-27T00:43:41;102284.94;;;1.47;88.21
71043;BME280;58696;52.134;5.500;2023-04-27T00:46:08;102284.84;;;1.48;88.06
71043;BME280;58696;52.134;5.500;2023-04-27T00:48:36;102284.84;;;1.48;88.00
71043;BME280;58696;52.134;5.500;2023-04-27T00:51:04;102278.75;;;1.51;88.06
71043;BME280;58696;52.134;5.500;2023-04-27T00:53:31;102281.50;;;1.48;87.83
71043;BME280;58696;52.134;5.500;2023-04-27T00:55:58;102292.63;;;1.29;87.91
71043;BME280;58696;52.134;5.500;2023-04-27T00:58:29;102296.41;;;1.22;88.13
71043;BME280;58696;52.134;5.500;2023-04-27T01:00:59;102298.03;;;1.23;88.23
71043;BME280;58696;52.134;5.500;2023-04-27T01:03:31;102297.22;;;1.23;88.23
71043;BME280;58696;52.134;5.500;2023-04-27T01:06:00;102291.50;;;1.19;88.20
71043;BME280;58696;52.134;5.500;2023-04-27T01:08:28;102289.72;;;1.21;88.38
71043;BME280;58696;52.134;5.500;2023-04-27T01:10:54;102279.59;;;1.21;88.48
71043;BME280;58696;52.134;5.500;2023-04-27T01:13:21;102283.84;;;1.21;88.14
71043;BME280;58696;52.134;5.500;2023-04-27T01:15:50;102284.66;;;1.21;88.57
71043;BME280;58696;52.134;5.500;2023-04-27T01:18:19;102277.69;;;1.25;88.27
71043;BME280;58696;52.134;5.500;2023-04-27T01:20:45;102277.06;;;1.21;88.21
71043;BME280;58696;52.134;5.500;2023-04-27T01:23:15;102272.50;;;1.12;88.24
71043;BME280;58696;52.134;5.500;2023-04-27T01:25:48;102285.13;;;0.98;88.23
71043;BME280;58696;52.134;5.500;2023-04-27T01:28:14;102282.44;;;0.85;88.45
71043;BME280;58696;52.134;5.500;2023-04-27T01:30:41;102289.69;;;0.75;88.67
71043;BME280;58696;52.134;5.500;2023-04-27T01:33:09;102286.44;;;0.73;89.17
71043;BME280;58696;52.134;5.500;2023-04-27T01:35:36;102292.22;;;0.75;89.48
71043;BME280;58696;52.134;5.500;2023-04-27T01:38:03;102289.53;;;0.78;89.88
71043;BME280;58696;52.134;5.500;2023-04-27T01:40:29;102290.81;;;0.86;90.24
71043;BME280;58696;52.134;5.500;2023-04-27T01:43:01;102287.81;;;0.95;90.25
71043;BME280;58696;52.134;5.500;2023-04-27T01:45:27;102280.69;;;1.01;90.29
71043;BME280;58696;52.134;5.500;2023-04-27T01:47:54;102275.47;;;1.04;90.09
71043;BME280;58696;52.134;5.500;2023-04-27T01:50:21;102272.84;;;1.06;89.58
71043;BME280;58696;52.134;5.500;2023-04-27T01:52:50;102270.75;;;0.98;89.69
71043;BME280;58696;52.134;5.500;2023-04-27T01:55:19;102268.03;;;1.01;89.45
71043;BME280;58696;52.134;5.500;2023-04-27T01:57:45;102275.88;;;0.97;89.24
71043;BME280;58696;52.134;5.500;2023-04-27T02:00:12;102266.09;;;0.91;89.11
71043;BME280;58696;52.134;5.500;2023-04-27T02:02:39;102266.59;;;0.82;89.17
71043;BME280;58696;52.134;5.500;2023-04-27T02:05:06;102265.28;;;0.74;89.42
71043;BME280;58696;52.134;5.500;2023-04-27T02:07:32;102267.09;;;0.72;89.65
71043;BME280;58696;52.134;5.500;2023-04-27T02:10:04;102269.97;;;0.66;89.91
71043;BME280;58696;52.134;5.500;2023-04-27T02:12:30;102265.72;;;0.67;90.35
71043;BME280;58696;52.134;5.500;2023-04-27T02:14:57;102267.59;;;0.63;90.48
71043;BME280;58696;52.134;5.500;2023-04-27T02:17:23;102277.78;;;0.62;90.59
71043;BME280;58696;52.134;5.500;2023-04-27T02:19:55;102275.25;;;0.62;90.86
71043;BME280;58696;52.134;5.500;2023-04-27T02:22:21;102279.50;;;0.61;90.81
71043;BME280;58696;52.134;5.500;2023-04-27T02:24:48;102274.13;;;0.67;90.71
71043;BME280;58696;52.134;5.500;2023-04-27T02:27:14;102271.69;;;0.66;90.53
71043;BME280;58696;52.134;5.500;2023-04-27T02:29:44;102277.13;;;0.58;90.14
71043;BME280;58696;52.134;5.500;2023-04-27T02:32:13;102273.44;;;0.48;90.19
71043;BME280;58696;52.134;5.500;2023-04-27T02:34:42;102274.34;;;0.47;90.12
71043;BME280;58696;52.134;5.500;2023-04-27T02:37:08;102265.84;;;0.48;89.97
71043;BME280;58696;52.134;5.500;2023-04-27T02:39:35;102264.81;;;0.52;90.16
71043;BME280;58696;52.134;5.500;2023-04-27T02:42:02;102265.03;;;0.47;89.86
71043;BME280;58696;52.134;5.500;2023-04-27T02:44:28;102262.44;;;0.33;89.58
71043;BME280;58696;52.134;5.500;2023-04-27T02:46:55;102254.59;;;0.22;89.65
71043;BME280;58696;52.134;5.500;2023-04-27T02:49:21;102251.72;;;0.12;89.69
71043;BME280;58696;52.134;5.500;2023-04-27T02:51:50;102248.63;;;0.07;90.03
71043;BME280;58696;52.134;5.500;2023-04-27T02:54:17;102247.50;;;0.13;90.20
71043;BME280;58696;52.134;5.500;2023-04-27T02:56:43;102250.75;;;0.15;90.21
71043;BME280;58696;52.134;5.500;2023-04-27T02:59:10;102247.03;;;0.22;90.71
71043;BME280;58696;52.134;5.500;2023-04-27T03:01:37;102250.84;;;0.29;90.67
71043;BME280;58696;52.134;5.500;2023-04-27T03:04:04;102246.94;;;0.23;90.59
71043;BME280;58696;52.134;5.500;2023-04-27T03:06:31;102251.19;;;0.23;90.92
71043;BME280;58696;52.134;5.500;2023-04-27T03:09:00;102260.88;;;0.31;91.18
71043;BME280;58696;52.134;5.500;2023-04-27T03:11:28;102255.81;;;0.31;91.22
71043;BME280;58696;52.134;5.500;2023-04-27T03:14:00;102254.34;;;0.26;91.02
71043;BME280;58696;52.134;5.500;2023-04-27T03:16:27;102261.34;;;0.21;90.93
71043;BME280;58696;52.134;5.500;2023-04-27T03:18:53;102261.13;;;0.26;91.23
71043;BME280;58696;52.134;5.500;2023-04-27T03:21:22;102264.41;;;0.28;91.11
71043;BME280;58696;52.134;5.500;2023-04-27T03:23:51;102268.78;;;0.24;91.36
71043;BME280;58696;52.134;5.500;2023-04-27T03:26:17;102267.16;;;0.23;90.97
71043;BME280;58696;52.134;5.500;2023-04-27T03:28:49;102265.44;;;0.24;91.29
71043;BME280;58696;52.134;5.500;2023-04-27T03:31:18;102271.16;;;0.28;91.48
71043;BME280;58696;52.134;5.500;2023-04-27T03:33:44;102268.63;;;0.28;91.46
71043;BME280;58696;52.134;5.500;2023-04-27T03:36:13;102266.50;;;0.20;91.37
71043;BME280;58696;52.134;5.500;2023-04-27T03:38:42;102261.19;;;0.24;91.48
71043;BME280;58696;52.134;5.500;2023-04-27T03:41:11;102269.22;;;0.33;91.52
71043;BME280;58696;52.134;5.500;2023-04-27T03:43:40;102269.03;;;0.36;91.51
71043;BME280;58696;52.134;5.500;2023-04-27T03:46:07;102260.66;;;0.35;91.56
71043;BME280;58696;52.134;5.500;2023-04-27T03:48:36;102264.88;;;0.35;91.28
71043;BME280;58696;52.134;5.500;2023-04-27T03:51:02;102264.31;;;0.30;91.35
71043;BME280;58696;52.134;5.500;2023-04-27T03:53:31;102271.97;;;0.28;91.51
71043;BME280;58696;52.134;5.500;2023-04-27T03:56:00;102268.78;;;0.24;91.45
71043;BME280;58696;52.134;5.500;2023-04-27T03:58:27;102270.59;;;0.22;91.29
71043;BME280;58696;52.134;5.500;2023-04-27T04:00:56;102270.06;;;0.16;91.27
71043;BME280;58696;52.134;5.500;2023-04-27T04:03:22;102269.25;;;0.15;91.44
71043;BME280;58696;52.134;5.500;2023-04-27T04:05:51;102261.44;;;0.20;91.54
71043;BME280;58696;52.134;5.500;2023-04-27T04:08:18;102276.28;;;0.26;91.55
71043;BME280;58696;52.134;5.500;2023-04-27T04:10:50;102267.75;;;0.29;91.48
71043;BME280;58696;52.134;5.500;2023-04-27T04:13:16;102266.69;;;0.33;91.52
71043;BME280;58696;52.134;5.500;2023-04-27T04:15:43;102269.94;;;0.35;91.32
71043;BME280;58696;52.134;5.500;2023-04-27T04:18:09;102271.81;;;0.31;91.19
71043;BME280;58696;52.134;5.500;2023-04-27T04:20:36;102268.88;;;0.23;91.09
71043;BME280;58696;52.134;5.500;2023-04-27T04:23:05;102271.22;;;0.26;91.35
71043;BME280;58696;52.134;5.500;2023-04-27T04:25:32;102266.09;;;0.28;91.07
71043;BME280;58696;52.134;5.500;2023-04-27T04:28:04;102276.38;;;0.24;91.03
71043;BME280;58696;52.134;5.500;2023-04-27T04:30:35;102281.44;;;0.24;91.17
71043;BME280;58696;52.134;5.500;2023-04-27T04:33:02;102281.91;;;0.31;91.39
71043;BME280;58696;52.134;5.500;2023-04-27T04:35:28;102281.69;;;0.36;91.25
71043;BME280;58696;52.134;5.500;2023-04-27T04:37:57;102286.75;;;0.36;91.38
71043;BME280;58696;52.134;5.500;2023-04-27T04:40:26;102294.81;;;0.42;91.47
71043;BME280;58696;52.134;5.500;2023-04-27T04:42:53;102290.44;;;0.46;91.29
71043;BME280;58696;52.134;5.500;2023-04-27T04:45:22;102286.84;;;0.50;91.14
71043;BME280;58696;52.134;5.500;2023-04-27T04:47:51;102302.59;;;0.55;91.01
71043;BME280;58696;52.134;5.500;2023-04-27T04:50:19;102302.50;;;0.57;90.88
71043;BME280;58696;52.134;5.500;2023-04-27T04:52:46;102306.56;;;0.59;90.72
71043;BME280;58696;52.134;5.500;2023-04-27T04:55:15;102304.72;;;0.63;90.65
71043;BME280;58696;52.134;5.500;2023-04-27T04:57:42;102305.72;;;0.60;90.42
71043;BME280;58696;52.134;5.500;2023-04-27T05:00:09;102303.81;;;0.64;90.31
71043;BME280;58696;52.134;5.500;2023-04-27T05:02:40;102301.22;;;0.65;90.38
71043;BME280;58696;52.134;5.500;2023-04-27T05:05:11;102298.19;;;0.74;90.45
71043;BME280;58696;52.134;5.500;2023-04-27T05:07:38;102298.75;;;0.79;90.07
71043;BME280;58696;52.134;5.500;2023-04-27T05:10:07;102296.78;;;0.85;90.10
71043;BME280;58696;52.134;5.500;2023-04-27T05:12:36;102290.09;;;0.99;90.11
71043;BME280;58696;52.134;5.500;2023-04-27T05:15:05;102303.38;;;2.07;90.00
71043;BME280;58696;52.134;5.500;2023-04-27T05:17:31;102292.88;;;3.36;86.10
71043;BME280;58696;52.134;5.500;2023-04-27T05:19:58;102293.00;;;4.36;82.01
71043;BME280;58696;52.134;5.500;2023-04-27T05:22:27;102299.00;;;4.96;79.02
71043;BME280;58696;52.134;5.500;2023-04-27T05:24:53;102298.72;;;5.58;76.46
71043;BME280;58696;52.134;5.500;2023-04-27T05:27:20;102294.59;;;5.91;74.62
71043;BME280;58696;52.134;5.500;2023-04-27T05:29:47;102293.81;;;6.01;73.77
71043;BME280;58696;52.134;5.500;2023-04-27T05:32:18;102292.88;;;6.36;71.99
71043;BME280;58696;52.134;5.500;2023-04-27T05:34:47;102288.56;;;6.91;70.12
71043;BME280;58696;52.134;5.500;2023-04-27T05:37:19;102303.94;;;7.54;67.97
71043;BME280;58696;52.134;5.500;2023-04-27T05:39:45;102303.94;;;8.15;66.51
71043;BME280;58696;52.134;5.500;2023-04-27T05:42:14;102304.34;;;8.51;64.62
71043;BME280;58696;52.134;5.500;2023-04-27T05:44:41;102309.84;;;8.46;64.71
71043;BME280;58696;52.134;5.500;2023-04-27T05:47:08;102309.81;;;8.86;63.37
71043;BME280;58696;52.134;5.500;2023-04-27T05:49:37;102307.47;;;9.12;62.12
71043;BME280;58696;52.134;5.500;2023-04-27T05:52:05;102302.75;;;9.17;61.58
71043;BME280;58696;52.134;5.500;2023-04-27T05:54:32;102309.25;;;9.21;61.39
71043;BME280;58696;52.134;5.500;2023-04-27T05:56:58;102312.41;;;9.99;60.33
71043;BME280;58696;52.134;5.500;2023-04-27T05:59:30;102304.81;;;10.80;57.40
71043;BME280;58696;52.134;5.500;2023-04-27T06:01:59;102306.09;;;10.21;58.17
71043;BME280;58696;52.134;5.500;2023-04-27T06:04:25;102299.53;;;10.09;58.69
71043;BME280;58696;52.134;5.500;2023-04-27T06:06:55;102291.69;;;10.38;58.22
71043;BME280;58696;52.134;5.500;2023-04-27T06:09:24;102299.72;;;10.53;58.44
71043;BME280;58696;52.134;5.500;2023-04-27T06:11:50;102305.56;;;11.61;56.32
71043;BME280;58696;52.134;5.500;2023-04-27T06:14:19;102303.53;;;11.98;54.38
71043;BME280;58696;52.134;5.500;2023-04-27T06:16:48;102314.47;;;12.43;53.45
71043;BME280;58696;52.134;5.500;2023-04-27T06:19:17;102301.13;;;12.88;51.97
71043;BME280;58696;52.134;5.500;2023-04-27T06:21:43;102299.19;;;12.98;51.71
71043;BME280;58696;52.134;5.500;2023-04-27T06:24:12;102299.34;;;12.56;52.05
71043;BME280;58696;52.134;5.500;2023-04-27T06:26:41;102298.91;;;12.10;52.95
71043;BME280;58696;52.134;5.500;2023-04-27T06:29:07;102293.38;;;11.71;54.40
71043;BME280;58696;52.134;5.500;2023-04-27T06:31:34;102303.09;;;12.11;54.30
71043;BME280;58696;52.134;5.500;2023-04-27T06:34:00;102305.75;;;11.93;54.71
71043;BME280;58696;52.134;5.500;2023-04-27T06:36:27;102301.19;;;11.53;55.00
71043;BME280;58696;52.134;5.500;2023-04-27T06:38:54;102301.66;;;11.56;54.86
71043;BME280;58696;52.134;5.500;2023-04-27T06:41:21;102310.31;;;11.47;55.28
71043;BME280;58696;52.134;5.500;2023-04-27T06:43:51;102305.72;;;11.59;55.27
71043;BME280;58696;52.134;5.500;2023-04-27T06:46:18;102307.06;;;11.97;53.86
71043;BME280;58696;52.134;5.500;2023-04-27T06:48:47;102302.66;;;12.24;52.93
71043;BME280;58696;52.134;5.500;2023-04-27T06:51:14;102306.56;;;12.36;52.88
71043;BME280;58696;52.134;5.500;2023-04-27T06:53:43;102307.41;;;12.77;52.16
71043;BME280;58696;52.134;5.500;2023-04-27T06:56:10;102313.91;;;13.06;51.22
71043;BME280;58696;52.134;5.500;2023-04-27T06:58:37;102309.69;;;12.97;51.32
71043;BME280;58696;52.134;5.500;2023-04-27T07:01:05;102307.59;;;12.84;51.38
71043;BME280;58696;52.134;5.500;2023-04-27T07:03:35;102304.53;;;12.88;52.14
71043;BME280;58696;52.134;5.500;2023-04-27T07:06:04;102306.84;;;12.33;52.96
71043;BME280;58696;52.134;5.500;2023-04-27T07:08:33;102300.75;;;12.42;53.34
71043;BME280;58696;52.134;5.500;2023-04-27T07:11:02;102303.09;;;12.94;51.69
71043;BME280;58696;52.134;5.500;2023-04-27T07:13:29;102308.72;;;13.30;50.69
71043;BME280;58696;52.134;5.500;2023-04-27T07:15:58;102305.94;;;13.56;50.67
71043;BME280;58696;52.134;5.500;2023-04-27T07:18:26;102310.13;;;13.65;49.46
71043;BME280;58696;52.134;5.500;2023-04-27T07:20:55;102309.31;;;13.65;49.35
71043;BME280;58696;52.134;5.500;2023-04-27T07:23:23;102319.84;;;13.55;49.34
71043;BME280;58696;52.134;5.500;2023-04-27T07:25:52;102316.56;;;13.69;49.21
71043;BME280;58696;52.134;5.500;2023-04-27T07:28:22;102327.19;;;13.83;49.79
71043;BME280;58696;52.134;5.500;2023-04-27T07:30:51;102316.06;;;14.13;49.53
71043;BME280;58696;52.134;5.500;2023-04-27T07:33:20;102317.38;;;14.40;49.02
71043;BME280;58696;52.134;5.500;2023-04-27T07:35:47;102310.59;;;14.70;46.23
71043;BME280;58696;52.134;5.500;2023-04-27T07:38:15;102313.81;;;14.50;50.30
71043;BME280;58696;52.134;5.500;2023-04-27T07:40:42;102299.41;;;14.16;47.43
71043;BME280;58696;52.134;5.500;2023-04-27T07:43:12;102305.94;;;14.04;45.84
71043;BME280;58696;52.134;5.500;2023-04-27T07:45:43;102299.00;;;14.04;45.94
71043;BME280;58696;52.134;5.500;2023-04-27T07:48:11;102303.44;;;13.87;46.41
71043;BME280;58696;52.134;5.500;2023-04-27T07:50:39;102305.72;;;13.82;47.74
71043;BME280;58696;52.134;5.500;2023-04-27T07:53:06;102295.03;;;13.85;47.26
71043;BME280;58696;52.134;5.500;2023-04-27T07:55:35;102306.94;;;14.03;47.58
71043;BME280;58696;52.134;5.500;2023-04-27T07:58:06;102309.84;;;14.31;47.08
71043;BME280;58696;52.134;5.500;2023-04-27T08:00:33;102309.91;;;14.54;45.35
71043;BME280;58696;52.134;5.500;2023-04-27T08:03:01;102307.31;;;14.23;45.54
71043;BME280;58696;52.134;5.500;2023-04-27T08:05:33;102303.44;;;13.79;44.45
71043;BME280;58696;52.134;5.500;2023-04-27T08:08:00;102312.97;;;14.18;45.77
71043;BME280;58696;52.134;5.500;2023-04-27T08:10:32;102306.00;;;14.58;44.98
71043;BME280;58696;52.134;5.500;2023-04-27T08:12:58;102300.47;;;14.61;45.17
71043;BME280;58696;52.134;5.500;2023-04-27T08:15:27;102303.13;;;14.44;45.01
71043;BME280;58696;52.134;5.500;2023-04-27T08:17:56;102309.09;;;14.22;46.01
71043;BME280;58696;52.134;5.500;2023-04-27T08:20:23;102313.09;;;13.93;46.09
71043;BME280;58696;52.134;5.500;2023-04-27T08:22:52;102309.53;;;14.03;44.38
71043;BME280;58696;52.134;5.500;2023-04-27T08:25:21;102306.88;;;13.63;43.96
71043;BME280;58696;52.134;5.500;2023-04-27T08:27:47;102311.97;;;13.32;45.49
71043;BME280;58696;52.134;5.500;2023-04-27T08:30:17;102312.91;;;13.15;47.14
71043;BME280;58696;52.134;5.500;2023-04-27T08:32:46;102311.13;;;13.15;45.74
71043;BME280;58696;52.134;5.500;2023-04-27T08:35:16;102314.88;;;13.29;45.23
71043;BME280;58696;52.134;5.500;2023-04-27T08:37:45;102309.53;;;13.06;44.90
71043;BME280;58696;52.134;5.500;2023-04-27T08:40:14;102308.56;;;12.99;46.55
71043;BME280;58696;52.134;5.500;2023-04-27T08:42:53;102297.75;;;13.04;45.69
71043;BME280;58696;52.134;5.500;2023-04-27T08:45:24;102294.22;;;12.72;46.62
71043;BME280;58696;52.134;5.500;2023-04-27T08:47:53;102293.53;;;12.54;46.65
71043;BME280;58696;52.134;5.500;2023-04-27T08:50:21;102299.50;;;12.54;46.43
71043;BME280;58696;52.134;5.500;2023-04-27T08:52:49;102302.56;;;12.58;48.12
71043;BME280;58696;52.134;5.500;2023-04-27T08:55:19;102291.13;;;12.60;48.27
71043;BME280;58696;52.134;5.500;2023-04-27T08:57:55;102299.31;;;12.40;47.42
71043;BME280;58696;52.134;5.500;2023-04-27T09:00:25;102292.56;;;12.47;47.81
71043;BME280;58696;52.134;5.500;2023-04-27T09:02:52;102292.72;;;12.53;47.06
71043;BME280;58696;52.134;5.500;2023-04-27T09:05:21;102294.63;;;12.35;46.83
71043;BME280;58696;52.134;5.500;2023-04-27T09:07:59;102298.16;;;12.26;46.20
71043;BME280;58696;52.134;5.500;2023-04-27T09:10:43;102297.25;;;12.51;47.21
71043;BME280;58696;52.134;5.500;2023-04-27T09:13:11;102297.53;;;12.48;46.40
71043;BME280;58696;52.134;5.500;2023-04-27T09:15:49;102299.63;;;12.36;46.93
71043;BME280;58696;52.134;5.500;2023-04-27T09:18:19;102294.34;;;12.62;47.47
71043;BME280;58696;52.134;5.500;2023-04-27T09:20:51;102297.28;;;12.68;45.48
71043;BME280;58696;52.134;5.500;2023-04-27T09:26:01;102290.81;;;13.12;44.52
71043;BME280;58696;52.134;5.500;2023-04-27T09:28:29;102283.41;;;13.34;45.36
71043;BME280;58696;52.134;5.500;2023-04-27T09:31:00;102286.47;;;13.37;46.51
71043;BME280;58696;52.134;5.500;2023-04-27T09:33:29;102282.09;;;13.13;45.22
71043;BME280;58696;52.134;5.500;2023-04-27T09:35:59;102285.53;;;13.22;43.14
71043;BME280;58696;52.134;5.500;2023-04-27T09:38:28;102278.75;;;12.88;45.21
71043;BME280;58696;52.134;5.500;2023-04-27T09:40:54;102278.06;;;13.19;45.84
71043;BME280;58696;52.134;5.500;2023-04-27T09:43:23;102280.28;;;13.47;43.57
71043;BME280;58696;52.134;5.500;2023-04-27T09:45:50;102276.41;;;13.42;42.87
71043;BME280;58696;52.134;5.500;2023-04-27T09:48:17;102273.72;;;13.28;45.68
71043;BME280;58696;52.134;5.500;2023-04-27T09:50:48;102270.63;;;13.40;43.87
71043;BME280;58696;52.134;5.500;2023-04-27T09:53:18;102277.03;;;13.53;46.36
71043;BME280;58696;52.134;5.500;2023-04-27T10:06:55;102257.81;;;13.63;43.40
71043;BME280;58696;52.134;5.500;2023-04-27T10:09:23;102258.28;;;13.59;43.59
71043;BME280;58696;52.134;5.500;2023-04-27T10:11:53;102259.69;;;13.78;41.07
71043;BME280;58696;52.134;5.500;2023-04-27T10:14:23;102266.78;;;13.84;42.13
71043;BME280;58696;52.134;5.500;2023-04-27T10:16:53;102271.44;;;13.88;42.04
71043;BME280;58696;52.134;5.500;2023-04-27T10:19:21;102276.00;;;13.78;40.86
71043;BME280;58696;52.134;5.500;2023-04-27T10:22:01;102253.97;;;13.59;42.15
71043;BME280;58696;52.134;5.500;2023-04-27T10:24:37;102265.56;;;14.03;43.14
71043;BME280;58696;52.134;5.500;2023-04-27T10:27:07;102266.88;;;13.99;42.78
71043;BME280;58696;52.134;5.500;2023-04-27T10:29:45;102259.41;;;13.64;42.42
71043;BME280;58696;52.134;5.500;2023-04-27T10:34:46;102261.94;;;13.81;40.19
71043;BME280;58696;52.134;5.500;2023-04-27T10:37:17;102265.78;;;13.93;40.06
71043;BME280;58696;52.134;5.500;2023-04-27T10:39:49;102269.78;;;13.95;42.97
71043;BME280;58696;52.134;5.500;2023-04-27T10:42:26;102256.63;;;13.82;41.55
71043;BME280;58696;52.134;5.500;2023-04-27T10:44:56;102261.81;;;14.05;41.53
71043;BME280;58696;52.134;5.500;2023-04-27T10:47:23;102256.44;;;13.84;42.93
71043;BME280;58696;52.134;5.500;2023-04-27T10:49:52;102261.63;;;14.15;43.01
71043;BME280;58696;52.134;5.500;2023-04-27T10:52:25;102253.81;;;14.46;44.00
71043;BME280;58696;52.134;5.500;2023-04-27T10:54:51;102258.06;;;14.16;43.04
71043;BME280;58696;52.134;5.500;2023-04-27T10:57:18;102248.47;;;14.25;43.17
71043;BME280;58696;52.134;5.500;2023-04-27T10:59:52;102250.66;;;14.36;41.59
71043;BME280;58696;52.134;5.500;2023-04-27T11:02:27;102251.88;;;14.25;42.58
71043;BME280;58696;52.134;5.500;2023-04-27T11:04:55;102252.09;;;14.15;42.40
71043;BME280;58696;52.134;5.500;2023-04-27T11:07:27;102247.53;;;14.40;43.01
71043;BME280;58696;52.134;5.500;2023-04-27T11:09:56;102247.91;;;14.14;41.21
71043;BME280;58696;52.134;5.500;2023-04-27T11:12:28;102233.19;;;14.61;41.27
71043;BME280;58696;52.134;5.500;2023-04-27T11:14:59;102233.91;;;14.92;43.15
71043;BME280;58696;52.134;5.500;2023-04-27T11:17:31;102230.78;;;14.97;42.63
71043;BME280;58696;52.134;5.500;2023-04-27T11:20:00;102230.28;;;14.64;41.26
71043;BME280;58696;52.134;5.500;2023-04-27T11:22:27;102218.94;;;14.42;41.59
71043;BME280;58696;52.134;5.500;2023-04-27T11:24:53;102213.28;;;14.38;42.10
71043;BME280;58696;52.134;5.500;2023-04-27T11:27:23;102217.41;;;14.56;41.87
71043;BME280;58696;52.134;5.500;2023-04-27T11:30:02;102207.28;;;14.69;39.00
71043;BME280;58696;52.134;5.500;2023-04-27T11:32:31;102212.22;;;14.93;43.26
71043;BME280;58696;52.134;5.500;2023-04-27T11:35:00;102209.69;;;14.70;41.81
71043;BME280;58696;52.134;5.500;2023-04-27T11:37:32;102206.28;;;14.70;40.64
71043;BME280;58696;52.134;5.500;2023-04-27T11:40:02;102205.44;;;14.92;40.93
71043;BME280;58696;52.134;5.500;2023-04-27T11:42:30;102204.09;;;15.26;41.55
71043;BME280;58696;52.134;5.500;2023-04-27T11:45:01;102207.94;;;15.30;37.77
71043;BME280;58696;52.134;5.500;2023-04-27T11:47:30;102197.22;;;14.51;40.20
71043;BME280;58696;52.134;5.500;2023-04-27T11:50:02;102200.22;;;14.63;40.21
71043;BME280;58696;52.134;5.500;2023-04-27T11:52:34;102202.72;;;14.71;37.93
71043;BME280;58696;52.134;5.500;2023-04-27T11:55:02;102200.88;;;14.57;38.99
71043;BME280;58696;52.134;5.500;2023-04-27T11:57:31;102197.16;;;14.59;39.71
71043;BME280;58696;52.134;5.500;2023-04-27T12:00:02;102195.09;;;15.07;41.00
71043;BME280;58696;52.134;5.500;2023-04-27T12:02:37;102191.22;;;15.33;38.76
71043;BME280;58696;52.134;5.500;2023-04-27T12:05:04;102185.44;;;15.16;40.28
71043;BME280;58696;52.134;5.500;2023-04-27T12:07:33;102184.38;;;15.25;37.37
71043;BME280;58696;52.134;5.500;2023-04-27T12:09:59;102181.97;;;15.23;40.92
71043;BME280;58696;52.134;5.500;2023-04-27T12:12:26;102185.28;;;15.03;41.04
71043;BME280;58696;52.134;5.500;2023-04-27T12:14:56;102182.66;;;15.32;40.99
71043;BME280;58696;52.134;5.500;2023-04-27T12:17:26;102184.38;;;15.40;38.67
71043;BME280;58696;52.134;5.500;2023-04-27T12:19:52;102188.38;;;15.27;40.23
71043;BME280;58696;52.134;5.500;2023-04-27T12:22:19;102187.59;;;15.12;39.45
71043;BME280;58696;52.134;5.500;2023-04-27T12:24:46;102185.72;;;15.06;40.21
71043;BME280;58696;52.134;5.500;2023-04-27T12:27:12;102191.41;;;15.31;41.51
71043;BME280;58696;52.134;5.500;2023-04-27T12:29:41;102182.66;;;15.32;35.88
71043;BME280;58696;52.134;5.500;2023-04-27T12:32:08;102176.88;;;15.01;39.33
71043;BME280;58696;52.134;5.500;2023-04-27T12:34:34;102168.09;;;15.31;41.17
71043;BME280;58696;52.134;5.500;2023-04-27T12:37:01;102167.09;;;15.47;39.09
71043;BME280;58696;52.134;5.500;2023-04-27T12:39:28;102169.09;;;15.45;39.95
71043;BME280;58696;52.134;5.500;2023-04-27T12:42:00;102158.41;;;15.55;37.25
71043;BME280;58696;52.134;5.500;2023-04-27T12:44:29;102150.22;;;15.66;36.33
71043;BME280;58696;52.134;5.500;2023-04-27T12:47:01;102145.16;;;15.28;38.53
71043;BME280;58696;52.134;5.500;2023-04-27T12:49:29;102146.81;;;15.65;38.95
71043;BME280;58696;52.134;5.500;2023-04-27T12:51:56;102150.38;;;15.64;38.55
71043;BME280;58696;52.134;5.500;2023-04-27T12:54:25;102146.69;;;15.73;39.25
71043;BME280;58696;52.134;5.500;2023-04-27T12:56:54;102146.97;;;16.00;40.03
71043;BME280;58696;52.134;5.500;2023-04-27T12:59:21;102146.06;;;16.14;36.93
71043;BME280;58696;52.134;5.500;2023-04-27T13:01:47;102153.53;;;16.24;38.00
71043;BME280;58696;52.134;5.500;2023-04-27T13:04:18;102149.72;;;16.20;40.57
71043;BME280;58696;52.134;5.500;2023-04-27T13:06:48;102143.44;;;16.08;37.88
71043;BME280;58696;52.134;5.500;2023-04-27T13:09:15;102146.16;;;15.99;39.10
71043;BME280;58696;52.134;5.500;2023-04-27T13:11:44;102142.81;;;16.27;37.59
71043;BME280;58696;52.134;5.500;2023-04-27T13:14:10;102145.66;;;16.32;35.18
71043;BME280;58696;52.134;5.500;2023-04-27T13:16:39;102138.88;;;15.52;32.00
71043;BME280;58696;52.134;5.500;2023-04-27T13:19:05;102144.97;;;15.44;36.97